Time;durP1;ratioP1;P1;durP2;ratioP2;P2;SDS_P1;SDS_P2;PMS_P1;PMS_P2;Temp;Humidity;BMP_temperature;BMP_pressure;BME280_temperature;BME280_humidity;BME280_pressure;Samples;Min_cycle;Max_cycle;Signal;HPM_P1;HPM_P2
2022/05/28 00:01:09;;;;;;;22.40;2.85;;;12.00;99.90;;;;;;5055318;28;20049;-65
2022/05/28 00:03:35;;;;;;;3.60;1.23;;;12.00;99.90;;;;;;5055268;28;20487;-65
2022/05/28 00:06:01;;;;;;;4.78;1.98;;;11.80;99.90;;;;;;5053762;28;20119;-65
2022/05/28 00:08:28;;;;;;;4.70;1.23;;;;;;;;;;5037131;28;20068;-65
2022/05/28 00:10:56;;;;;;;7.45;1.17;;;11.60;99.90;;;;;;5055442;28;20041;-65
2022/05/28 00:13:23;;;;;;;5.63;2.20;;;11.40;99.90;;;;;;5054407;28;20091;-65
2022/05/28 00:15:49;;;;;;;5.80;1.48;;;;;;;;;;5037259;28;20411;-65
2022/05/28 00:18:15;;;;;;;3.05;1.20;;;;;;;;;;5055255;28;20064;-65
2022/05/28 00:20:40;;;;;;;3.58;1.27;;;11.40;99.90;;;;;;5053762;28;20525;-65
2022/05/28 00:23:06;;;;;;;11.02;1.27;;;11.40;99.90;;;;;;5053317;28;20041;-65
2022/05/28 00:25:32;;;;;;;10.13;1.85;;;;;;;;;;5054112;28;20033;-65
2022/05/28 00:27:58;;;;;;;7.30;1.70;;;;;;;;;;5037229;28;20041;-65
2022/05/28 00:30:24;;;;;;;4.30;1.30;;;11.20;99.90;;;;;;5053963;28;20045;-65
2022/05/28 00:32:49;;;;;;;4.68;1.60;;;11.30;99.90;;;;;;5053739;28;20040;-65
2022/05/28 00:35:17;;;;;;;6.03;1.48;;;11.20;99.90;;;;;;5052991;28;20039;-65
2022/05/28 00:37:45;;;;;;;7.75;1.70;;;11.20;99.90;;;;;;5054370;28;20040;-65
2022/05/28 00:40:19;;;;;;;13.27;2.28;;;11.20;99.90;;;;;;5053635;28;20052;-65
2022/05/28 00:42:45;;;;;;;8.30;1.95;;;11.20;99.90;;;;;;5054810;28;20125;-65
2022/05/28 00:45:10;;;;;;;9.13;1.27;;;11.20;99.90;;;;;;5053557;28;20534;-65
2022/05/28 00:47:41;;;;;;;7.22;1.52;;;11.10;99.90;;;;;;5054652;28;20426;-65
2022/05/28 00:50:08;;;;;;;7.00;1.77;;;11.20;99.90;;;;;;5053248;28;20604;-65
2022/05/28 00:52:34;;;;;;;7.85;1.45;;;11.10;99.90;;;;;;5036746;28;20170;-65
2022/05/28 00:55:00;;;;;;;8.07;1.85;;;;;;;;;;5053487;28;20120;-65
2022/05/28 00:57:26;;;;;;;7.15;1.55;;;11.20;99.90;;;;;;5053462;28;20123;-65
2022/05/28 00:59:53;;;;;;;7.32;1.73;;;11.00;99.90;;;;;;5053644;28;20556;-65
2022/05/28 01:02:33;;;;;;;7.43;1.45;;;11.10;99.90;;;;;;5052778;28;20503;-65
2022/05/28 01:05:16;;;;;;;14.77;1.98;;;11.00;99.90;;;;;;5052865;28;20561;-65
2022/05/28 01:08:02;;;;;;;10.00;1.95;;;10.90;99.90;;;;;;5053331;28;20480;-65
2022/05/28 01:10:51;;;;;;;5.78;1.70;;;10.80;99.90;;;;;;5029870;28;20076;-65
2022/05/28 01:13:30;;;;;;;5.72;1.60;;;10.80;99.90;;;;;;5053888;28;20552;-65
2022/05/28 01:16:07;;;;;;;12.57;1.70;;;10.70;99.90;;;;;;5054283;28;20087;-65
2022/05/28 01:18:37;;;;;;;7.60;1.73;;;10.90;99.90;;;;;;5054612;28;20087;-65
2022/05/28 01:21:13;;;;;;;5.43;1.40;;;10.70;99.90;;;;;;5052334;28;20119;-65
2022/05/28 01:24:05;;;;;;;7.68;1.70;;;10.60;99.90;;;;;;5052581;28;20033;-65
2022/05/28 01:26:54;;;;;;;9.13;1.80;;;10.60;99.90;;;;;;5036073;28;20043;-65
2022/05/28 01:29:21;;;;;;;5.05;1.40;;;10.60;99.90;;;;;;5054106;28;20033;-65
2022/05/28 01:31:48;;;;;;;5.78;1.67;;;10.60;99.90;;;;;;5035773;28;20124;-65
2022/05/28 01:34:15;;;;;;;4.00;1.60;;;10.60;99.90;;;;;;5035715;28;20529;-65
2022/05/28 01:36:41;;;;;;;9.18;1.92;;;10.60;99.90;;;;;;5035812;28;20090;-65
2022/05/28 01:39:08;;;;;;;6.22;2.05;;;10.60;99.90;;;;;;5052676;28;20119;-65
2022/05/28 01:41:36;;;;;;;13.20;3.38;;;10.50;99.90;;;;;;5052298;28;20513;-65
2022/05/28 01:44:06;;;;;;;12.00;2.00;;;10.50;99.90;;;;;;5052175;28;20124;-65
2022/05/28 01:46:33;;;;;;;6.25;2.17;;;10.40;99.90;;;;;;5035068;28;20472;-65
2022/05/28 01:48:59;;;;;;;8.95;1.60;;;10.50;99.90;;;;;;5052938;28;20068;-65
2022/05/28 01:51:34;;;;;;;8.15;2.47;;;10.40;99.90;;;;;;5053332;28;20045;-65
2022/05/28 01:54:09;;;;;;;9.13;1.73;;;10.50;99.90;;;;;;5053507;28;20044;-65
2022/05/28 01:56:38;;;;;;;5.97;1.58;;;10.50;99.90;;;;;;5051887;28;20088;-65
2022/05/28 01:59:04;;;;;;;12.63;2.00;;;10.40;99.90;;;;;;5051847;28;20041;-65
2022/05/28 02:01:30;;;;;;;4.18;1.48;;;10.30;99.90;;;;;;5051702;28;20124;-65
2022/05/28 02:04:01;;;;;;;9.30;1.98;;;10.50;99.90;;;;;;5034860;28;20466;-65
2022/05/28 02:06:27;;;;;;;9.13;1.70;;;;;;;;;;5053103;28;20056;-65
2022/05/28 02:08:55;;;;;;;10.30;1.92;;;10.40;99.90;;;;;;5051726;28;20037;-65
2022/05/28 02:11:27;;;;;;;9.32;2.05;;;10.40;99.90;;;;;;5051421;28;20053;-65
2022/05/28 02:14:17;;;;;;;9.27;2.75;;;10.30;99.90;;;;;;5052679;28;20414;-65
2022/05/28 02:16:50;;;;;;;9.10;2.05;;;10.30;99.90;;;;;;5053184;28;20402;-65
2022/05/28 02:19:48;;;;;;;8.38;1.92;;;10.30;99.90;;;;;;5037770;28;20078;-65
2022/05/28 02:22:26;;;;;;;12.15;1.98;;;10.20;99.90;;;;;;5050405;28;20053;-65
2022/05/28 02:24:57;;;;;;;6.70;1.38;;;10.40;99.90;;;;;;5051785;28;20037;-65
2022/05/28 02:27:26;;;;;;;7.72;2.28;;;10.20;99.90;;;;;;5052672;28;20045;-65
2022/05/28 02:29:52;;;;;;;9.63;2.00;;;;;;;;;;5051217;28;20267;-65
2022/05/28 02:32:21;;;;;;;7.43;1.73;;;10.10;99.90;;;;;;5049863;28;20059;-65
2022/05/28 02:34:47;;;;;;;9.13;2.13;;;10.10;99.90;;;;;;5039015;28;20068;-65
2022/05/28 02:37:18;;;;;;;5.65;1.50;;;10.20;99.90;;;;;;5034664;28;20478;-65
2022/05/28 02:39:43;;;;;;;9.27;2.40;;;10.10;99.90;;;;;;5052792;28;20032;-65
2022/05/28 02:42:09;;;;;;;11.07;2.00;;;10.00;99.90;;;;;;5034383;28;20179;-65
2022/05/28 02:44:35;;;;;;;13.27;2.05;;;10.00;99.90;;;;;;5034040;28;20123;-65
2022/05/28 02:47:01;;;;;;;7.50;1.70;;;10.10;99.90;;;;;;5052479;28;20116;-65
2022/05/28 02:49:26;;;;;;;7.07;1.67;;;10.00;99.90;;;;;;5052084;28;20171;-65
2022/05/28 02:51:52;;;;;;;12.52;2.38;;;10.00;99.90;;;;;;5052222;28;20037;-65
2022/05/28 02:54:19;;;;;;;9.75;1.92;;;10.00;99.90;;;;;;5052484;28;20045;-65
2022/05/28 02:56:45;;;;;;;10.10;1.75;;;;;;;;;;5051160;28;20402;-65
2022/05/28 02:59:11;;;;;;;9.32;2.28;;;10.00;99.90;;;;;;5051660;28;20037;-65
2022/05/28 03:01:37;;;;;;;5.22;1.90;;;;;;;;;;5050666;28;20036;-65
2022/05/28 03:04:05;;;;;;;8.48;1.95;;;9.90;99.90;;;;;;5051057;28;20044;-65
2022/05/28 03:06:30;;;;;;;10.80;2.15;;;10.00;99.90;;;;;;5034331;28;20045;-65
2022/05/28 03:08:56;;;;;;;6.20;1.85;;;10.00;99.90;;;;;;5052417;28;20115;-65
2022/05/28 03:11:22;;;;;;;7.53;1.98;;;;;;;;;;5034042;28;20395;-65
2022/05/28 03:13:48;;;;;;;8.90;2.05;;;9.90;99.90;;;;;;5050998;28;20048;-65
2022/05/28 03:16:14;;;;;;;6.82;2.30;;;9.90;99.90;;;;;;5050906;28;20147;-65
2022/05/28 03:18:40;;;;;;;8.63;1.75;;;9.90;99.90;;;;;;5050283;28;20124;-65
2022/05/28 03:21:06;;;;;;;10.57;2.08;;;10.00;99.90;;;;;;5034171;28;20439;-65
2022/05/28 03:23:32;;;;;;;13.05;3.15;;;9.90;99.90;;;;;;5050875;28;20090;-65
2022/05/28 03:25:58;;;;;;;11.60;2.35;;;9.80;99.90;;;;;;5051628;28;20402;-65
2022/05/28 03:28:23;;;;;;;7.57;2.10;;;9.90;99.90;;;;;;5051729;28;20345;-64
2022/05/28 03:30:49;;;;;;;12.88;2.20;;;9.90;99.90;;;;;;5050472;28;20037;-65
2022/05/28 03:33:15;;;;;;;8.38;2.85;;;9.90;99.90;;;;;;5050706;28;20068;-65
2022/05/28 03:35:40;;;;;;;8.70;1.80;;;9.90;99.90;;;;;;5051859;28;20049;-64
2022/05/28 03:38:07;;;;;;;12.65;1.83;;;9.90;99.90;;;;;;5051804;28;20435;-65
2022/05/28 03:40:33;;;;;;;9.05;2.30;;;;;;;;;;5050582;28;20043;-65
2022/05/28 03:42:59;;;;;;;12.95;2.25;;;9.80;99.90;;;;;;5051271;28;20044;-65
2022/05/28 03:45:26;;;;;;;8.55;1.70;;;10.00;99.90;;;;;;5033727;28;20037;-65
2022/05/28 03:47:52;;;;;;;7.95;1.83;;;9.90;99.90;;;;;;5050049;28;20041;-65
2022/05/28 03:50:18;;;;;;;10.77;2.10;;;;;;;;;;5050853;28;20056;-65
2022/05/28 03:52:43;;;;;;;12.85;1.88;;;9.90;99.90;;;;;;5050469;28;20048;-65
2022/05/28 03:55:09;;;;;;;9.88;2.30;;;9.80;99.90;;;;;;5050333;28;20071;-65
2022/05/28 03:57:36;;;;;;;9.20;1.85;;;;;;;;;;5050052;28;20049;-65
2022/05/28 04:00:03;;;;;;;10.32;1.98;;;9.90;99.90;;;;;;5039557;28;20045;-64
2022/05/28 04:02:29;;;;;;;12.15;2.03;;;9.90;99.90;;;;;;5042979;28;20059;-64
2022/05/28 04:04:54;;;;;;;11.38;2.53;;;10.10;99.90;;;;;;5050158;28;20057;-65
2022/05/28 04:07:21;;;;;;;10.00;2.10;;;10.00;99.90;;;;;;5051730;28;20045;-64
2022/05/28 04:09:46;;;;;;;9.70;2.78;;;10.00;99.90;;;;;;5047814;28;20038;-64
2022/05/28 04:12:13;;;;;;;14.07;3.10;;;9.90;99.90;;;;;;5042529;28;20070;-64
2022/05/28 04:14:38;;;;;;;8.32;2.17;;;10.00;99.90;;;;;;5040671;28;20036;-64
2022/05/28 04:17:05;;;;;;;13.63;2.85;;;10.10;99.90;;;;;;5030060;28;20048;-64
2022/05/28 04:19:31;;;;;;;11.32;2.17;;;10.00;99.90;;;;;;5047595;28;20459;-64
2022/05/28 04:21:57;;;;;;;6.55;1.75;;;;;;;;;;5048914;28;20099;-64
2022/05/28 04:24:23;;;;;;;10.60;2.72;;;10.20;99.90;;;;;;5045310;28;20036;-65
2022/05/28 04:26:48;;;;;;;9.40;2.15;;;10.10;99.90;;;;;;5048465;28;20494;-65
2022/05/28 04:29:14;;;;;;;7.13;1.80;;;;;;;;;;5048845;28;20044;-65
2022/05/28 04:31:40;;;;;;;6.93;1.90;;;;;;;;;;5046523;28;20127;-65
2022/05/28 04:34:06;;;;;;;14.90;2.90;;;;;;;;;;5042530;28;20072;-65
2022/05/28 04:36:32;;;;;;;11.23;2.10;;;10.40;99.90;;;;;;5041650;28;20041;-65
2022/05/28 04:38:58;;;;;;;13.93;2.50;;;;;;;;;;5042001;28;20127;-65
2022/05/28 04:41:24;;;;;;;11.20;2.28;;;;;;;;;;5043317;28;20094;-65
2022/05/28 04:43:50;;;;;;;13.77;2.70;;;10.70;99.90;;;;;;5042357;28;20048;-64
2022/05/28 04:46:16;;;;;;;12.20;2.35;;;;;;;;;;5041504;28;20044;-65
2022/05/28 04:48:42;;;;;;;12.18;2.28;;;;;;;;;;5041368;28;20523;-65
2022/05/28 04:51:08;;;;;;;12.63;3.08;;;;;;;;;;5041513;28;20056;-65
2022/05/28 04:53:34;;;;;;;12.00;2.67;;;;;;;;;;5041402;28;20037;-65
2022/05/28 04:56:00;;;;;;;14.02;2.38;;;;;;;;;;5041626;28;20068;-65
2022/05/28 04:58:27;;;;;;;12.30;2.13;;;;;;;;;;5041658;28;20037;-65
2022/05/28 05:00:53;;;;;;;15.10;3.15;;;12.10;99.90;;;;;;5041311;28;20077;-65
2022/05/28 05:03:19;;;;;;;13.55;2.65;;;12.70;99.90;;;;;;5042858;28;20131;-65
2022/05/28 05:05:45;;;;;;;8.88;2.10;;;;;;;;;;5042494;28;20057;-65
2022/05/28 05:08:12;;;;;;;10.77;2.30;;;;;;;;;;5040914;28;20051;-65
2022/05/28 05:10:38;;;;;;;9.65;2.33;;;;;;;;;;5041257;28;20064;-65
2022/05/28 05:13:05;;;;;;;10.75;2.63;;;12.90;99.90;;;;;;5042665;28;20197;-65
2022/05/28 05:15:31;;;;;;;12.07;2.15;;;;;;;;;;5041707;28;20041;-65
2022/05/28 05:17:57;;;;;;;18.08;2.72;;;;;;;;;;5042790;28;20461;-65
2022/05/28 05:20:23;;;;;;;13.48;2.90;;;;;;;;;;5044338;28;20074;-65
2022/05/28 05:22:49;;;;;;;9.48;2.08;;;;;;;;;;5042105;28;20053;-64
2022/05/28 05:25:14;;;;;;;11.30;3.13;;;13.50;99.90;;;;;;5032523;28;20087;-65
2022/05/28 05:27:42;;;;;;;16.52;2.50;;;13.90;99.90;;;;;;5044264;28;20472;-64
2022/05/28 05:30:07;;;;;;;11.15;2.22;;;14.40;99.90;;;;;;5042810;28;20120;-66
2022/05/28 05:32:33;;;;;;;10.10;1.95;;;14.70;99.90;;;;;;5043001;28;20132;-64
2022/05/28 05:34:59;;;;;;;15.55;2.35;;;14.90;99.90;;;;;;5025207;28;20067;-66
2022/05/28 05:37:25;;;;;;;14.10;2.58;;;;;;;;;;5041583;28;20765;-66
2022/05/28 05:39:51;;;;;;;11.60;2.47;;;;;;;;;;5042053;28;20044;-65
2022/05/28 05:42:16;;;;;;;12.32;2.15;;;13.60;99.90;;;;;;5042589;28;20456;-65
2022/05/28 05:44:42;;;;;;;12.63;2.20;;;;;;;;;;5044651;28;20079;-65
2022/05/28 05:47:08;;;;;;;11.95;2.13;;;13.20;99.90;;;;;;5041255;28;20079;-65
2022/05/28 05:49:34;;;;;;;15.65;2.50;;;;;;;;;;5042108;28;20399;-65
2022/05/28 05:52:00;;;;;;;14.40;2.63;;;;;;;;;;5043403;28;20131;-65
2022/05/28 05:54:26;;;;;;;11.93;2.40;;;;;;;;;;5043133;28;20392;-65
2022/05/28 05:56:55;;;;;;;7.03;2.10;;;12.40;99.90;;;;;;5043776;28;20457;-65
2022/05/28 05:59:22;;;;;;;20.48;3.15;;;;;;;;;;5044196;28;20049;-65
2022/05/28 06:01:48;;;;;;;14.50;3.00;;;;;;;;;;5043021;28;20059;-67
2022/05/28 06:04:14;;;;;;;8.20;2.17;;;;;;;;;;5043710;28;20127;-65
2022/05/28 06:06:40;;;;;;;9.70;2.97;;;11.60;99.90;;;;;;5046579;28;20099;-65
2022/05/28 06:09:06;;;;;;;12.30;3.70;;;11.60;99.90;;;;;;5048100;28;20072;-65
2022/05/28 06:11:33;;;;;;;8.93;2.13;;;11.40;99.90;;;;;;5046794;28;20048;-65
2022/05/28 06:13:59;;;;;;;6.65;1.92;;;11.00;99.90;;;;;;5047024;28;20078;-65
2022/05/28 06:16:25;;;;;;;8.05;1.63;;;;;;;;;;5047808;28;20044;-65
2022/05/28 06:18:51;;;;;;;9.15;2.42;;;11.40;99.90;;;;;;5047201;28;20071;-65
2022/05/28 06:21:17;;;;;;;10.18;2.55;;;;;;;;;;5041842;28;20857;-65
2022/05/28 06:23:43;;;;;;;12.98;2.72;;;;;;;;;;5040918;28;20049;-65
2022/05/28 06:26:10;;;;;;;11.05;2.03;;;11.40;99.90;;;;;;5041304;28;20060;-65
2022/05/28 06:28:36;;;;;;;3.67;1.83;;;;;;;;;;5038458;28;20064;-65
2022/05/28 06:31:05;;;;;;;10.00;2.00;;;11.60;99.90;;;;;;5040138;28;20037;-65
2022/05/28 06:33:31;;;;;;;8.63;1.90;;;;;;;;;;5039725;28;20052;-63
2022/05/28 06:35:57;;;;;;;12.30;2.40;;;;;;;;;;5040157;28;20048;-65
2022/05/28 06:38:23;;;;;;;7.57;2.65;;;;;;;;;;5040647;28;20045;-65
2022/05/28 06:40:49;;;;;;;18.00;3.15;;;12.90;99.90;;;;;;5040002;28;20482;-64
2022/05/28 06:43:16;;;;;;;17.80;3.10;;;;;;;;;;5041476;28;20041;-64
2022/05/28 06:45:42;;;;;;;13.23;3.00;;;;;;;;;;5040144;28;20497;-63
2022/05/28 06:48:08;;;;;;;15.65;3.28;;;13.20;99.90;;;;;;5041942;28;20044;-63
2022/05/28 06:53:20;;;;;;;13.07;3.42;;;;;;;;;;5037665;28;20116;-63
2022/05/28 06:55:47;;;;;;;14.60;2.72;;;;;;;;;;5041511;28;20075;-63
2022/05/28 06:58:13;;;;;;;14.57;2.83;;;13.30;99.90;;;;;;5039737;28;20045;-64
2022/05/28 07:00:39;;;;;;;15.00;2.92;;;;;;;;;;5041422;28;20566;-63
2022/05/28 07:03:05;;;;;;;13.52;2.50;;;;;;;;;;5041199;28;20060;-62
2022/05/28 07:05:31;;;;;;;13.25;2.70;;;13.20;99.90;;;;;;5039594;28;20094;-63
2022/05/28 07:07:57;;;;;;;12.60;2.47;;;;;;;;;;5041443;28;20063;-63
2022/05/28 07:10:23;;;;;;;11.50;2.20;;;13.10;99.90;;;;;;5041102;28;20041;-64
2022/05/28 07:12:49;;;;;;;10.40;3.00;;;13.20;99.90;;;;;;5039584;28;20122;-64
2022/05/28 07:15:15;;;;;;;14.98;2.92;;;;;;;;;;5040038;28;20053;-64
2022/05/28 07:17:42;;;;;;;16.27;2.30;;;;;;;;;;5041638;28;20120;-64
2022/05/28 07:20:09;;;;;;;12.85;3.30;;;13.20;99.90;;;;;;5040179;28;20180;-63
2022/05/28 07:22:35;;;;;;;12.57;2.63;;;;;;;;;;5039802;28;20120;-63
2022/05/28 07:25:01;;;;;;;14.00;4.05;;;;;;;;;;5027590;28;20068;-63
2022/05/28 07:27:27;;;;;;;11.60;2.60;;;;;;;;;;5020349;28;20037;-63
2022/05/28 07:29:57;;;;;;;16.02;3.80;;;12.80;99.90;;;;;;5020711;28;20049;-60
2022/05/28 07:32:25;;;;;;;14.85;2.35;;;;;;;;;;5024486;28;20418;-62
2022/05/28 07:34:51;;;;;;;16.13;3.22;;;;;;;;;;5029073;28;20102;-64
2022/05/28 07:37:17;;;;;;;19.83;3.55;;;;;;;;;;5039196;28;20158;-64
2022/05/28 07:39:43;;;;;;;11.68;2.03;;;12.90;99.90;;;;;;5038708;28;20051;-65
2022/05/28 07:42:10;;;;;;;10.57;2.22;;;;;;;;;;5039298;28;20506;-65
2022/05/28 07:44:36;;;;;;;8.48;2.10;;;;;;;;;;5039014;28;20545;-65
2022/05/28 07:47:06;;;;;;;12.98;3.05;;;12.80;99.90;;;;;;5042066;28;20131;-63
2022/05/28 07:49:32;;;;;;;6.03;2.38;;;;;;;;;;5042369;28;20499;-66
2022/05/28 07:51:58;;;;;;;17.80;2.97;;;;;;;;;;5044154;28;20048;-65
2022/05/28 07:54:24;;;;;;;10.63;3.03;;;;;;;;;;5045751;28;20041;-65
2022/05/28 07:56:49;;;;;;;33.88;12.88;;;13.30;99.90;;;;;;5043236;28;20059;-65
2022/05/28 07:59:15;;;;;;;16.85;5.72;;;;;;;;;;5043679;28;20453;-64
2022/05/28 08:01:41;;;;;;;22.95;9.43;;;;;;;;;;5043630;28;20049;-65
2022/05/28 08:04:08;;;;;;;121.10;75.88;;;;;;;;;;5025866;28;20520;-64
2022/05/28 08:06:33;;;;;;;103.55;74.53;;;13.50;99.90;;;;;;5043884;28;20045;-65
2022/05/28 08:09:00;;;;;;;62.63;51.42;;;13.30;99.90;;;;;;5052480;28;20072;-66
2022/05/28 08:11:26;;;;;;;20.52;11.48;;;;;;;;;;5045220;28;20380;-67
2022/05/28 08:13:53;;;;;;;23.83;8.00;;;13.20;99.90;;;;;;5044840;28;20487;-65
2022/05/28 08:16:20;;;;;;;8.60;4.47;;;;;;;;;;5032012;28;20570;-67
2022/05/28 08:18:46;;;;;;;17.45;3.28;;;;;;;;;;5040413;28;20044;-65
2022/05/28 08:23:56;;;;;;;12.50;3.75;;;;;;;;;;5036598;28;20045;-68
2022/05/28 08:26:22;;;;;;;11.43;3.25;;;;;;;;;;5043498;28;20072;-65
2022/05/28 08:28:49;;;;;;;12.82;3.35;;;13.50;99.90;;;;;;5040398;28;20573;-67
2022/05/28 08:31:16;;;;;;;15.18;3.50;;;13.50;99.90;;;;;;5036122;28;20921;-63
2022/05/28 08:33:42;;;;;;;13.00;3.63;;;;;;;;;;5036261;28;20107;-66
2022/05/28 08:36:09;;;;;;;13.25;3.17;;;;;;;;;;5041755;28;20132;-65
2022/05/28 08:38:35;;;;;;;10.32;2.30;;;;;;;;;;5044357;28;20052;-66
2022/05/28 08:41:09;;;;;;;10.65;2.08;;;13.40;99.90;;;;;;5044274;28;20049;-65
2022/05/28 08:43:39;;;;;;;12.90;2.87;;;13.60;99.90;;;;;;5036793;28;20038;-64
2022/05/28 08:46:10;;;;;;;13.95;2.92;;;13.60;99.90;;;;;;5028466;28;20108;-68
2022/05/28 08:48:49;;;;;;;16.55;3.42;;;13.50;99.90;;;;;;5034190;28;20056;-63
2022/05/28 08:51:17;;;;;;;13.98;2.65;;;13.50;99.90;;;;;;5045000;28;20044;-64
2022/05/28 08:53:49;;;;;;;14.20;3.13;;;13.60;99.90;;;;;;5046956;28;20113;-64
2022/05/28 08:56:19;;;;;;;16.35;3.22;;;13.60;99.90;;;;;;5048049;28;20033;-66
2022/05/28 08:58:47;;;;;;;12.82;3.28;;;13.50;99.90;;;;;;5049283;28;20041;-63
2022/05/28 09:01:18;;;;;;;20.15;3.22;;;13.70;99.90;;;;;;5051642;28;20045;-64
2022/05/28 09:03:59;;;;;;;19.50;3.15;;;13.70;99.90;;;;;;5047296;28;20044;-64
2022/05/28 09:06:31;;;;;;;21.85;3.05;;;13.70;99.90;;;;;;5046360;28;20114;-64
2022/05/28 09:08:57;;;;;;;12.50;3.67;;;;;;;;;;5044829;28;20048;-66
2022/05/28 09:12:12;;;;;;;12.85;2.50;;;13.70;99.90;;;;;;5043650;28;20029;-63
2022/05/28 09:14:39;;;;;;;17.02;2.90;;;13.80;99.90;;;;;;4996445;28;20057;-66
2022/05/28 09:17:16;;;;;;;12.00;2.22;;;14.20;99.90;;;;;;5034633;28;20139;-64
2022/05/28 09:19:48;;;;;;;8.77;2.20;;;14.20;99.90;;;;;;5048210;28;20080;-64
2022/05/28 09:22:14;;;;;;;13.48;2.65;;;14.20;99.90;;;;;;5040863;28;20384;-66
2022/05/28 09:24:40;;;;;;;11.70;2.53;;;14.30;99.90;;;;;;5046367;28;20051;-63
2022/05/28 09:27:21;;;;;;;11.98;2.40;;;14.30;99.90;;;;;;5045023;28;20041;-63
2022/05/28 09:30:05;;;;;;;11.15;1.90;;;14.50;99.90;;;;;;5043650;28;20486;-65
2022/05/28 09:33:03;;;;;;;6.97;1.85;;;14.80;99.90;;;;;;5044166;28;20683;-63
2022/05/28 09:35:56;;;;;;;13.73;2.53;;;14.80;99.90;;;;;;5044499;28;20418;-64
2022/05/28 09:38:48;;;;;;;12.27;2.47;;;14.80;99.90;;;;;;5046332;28;20589;-64
2022/05/28 09:41:51;;;;;;;7.95;1.50;;;14.70;99.90;;;;;;5051400;28;20082;-65
2022/05/28 09:44:17;;;;;;;14.07;2.03;;;;;;;;;;5048170;28;20102;-63
2022/05/28 09:46:44;;;;;;;9.73;2.20;;;15.00;99.90;;;;;;5051330;28;20451;-64
2022/05/28 09:49:21;;;;;;;12.90;1.70;;;14.80;99.90;;;;;;5051869;28;20119;-65
2022/05/28 09:51:58;;;;;;;15.35;2.40;;;15.00;99.90;;;;;;5050018;28;20099;-65
2022/05/28 09:54:33;;;;;;;13.15;2.92;;;14.90;99.90;;;;;;5046227;28;20051;-64
2022/05/28 09:57:09;;;;;;;7.53;1.65;;;14.70;99.90;;;;;;5043474;28;20123;-63
2022/05/28 09:59:44;;;;;;;10.80;2.22;;;14.60;99.90;;;;;;5039160;28;20041;-64
2022/05/28 10:02:20;;;;;;;13.25;3.08;;;14.70;99.90;;;;;;5045240;28;20525;-64
2022/05/28 10:05:16;;;;;;;10.35;2.20;;;14.90;99.90;;;;;;5028932;28;20529;-64
2022/05/28 10:07:46;;;;;;;6.72;1.80;;;14.60;99.90;;;;;;5041069;28;20051;-63
2022/05/28 10:10:23;;;;;;;8.45;1.67;;;14.70;99.90;;;;;;5045906;28;20049;-64
2022/05/28 10:12:49;;;;;;;11.30;2.22;;;;;;;;;;5050098;28;20049;-64
2022/05/28 10:15:21;;;;;;;11.43;2.03;;;15.00;99.90;;;;;;5047772;28;20045;-64
2022/05/28 10:18:02;;;;;;;11.35;2.58;;;14.70;99.90;;;;;;5036486;28;20041;-65
2022/05/28 10:20:29;;;;;;;13.95;2.58;;;14.90;99.90;;;;;;5046996;28;20084;-65
2022/05/28 10:22:57;;;;;;;10.73;3.35;;;14.60;99.90;;;;;;5047914;28;20111;-64
2022/05/28 10:25:32;;;;;;;11.25;2.33;;;14.60;99.90;;;;;;5046963;28;20064;-64
2022/05/28 10:27:57;;;;;;;;;;;14.50;99.90;;;;;;5048806;28;20087;-64
2022/05/28 10:30:32;;;;;;;13.10;3.05;;;14.80;99.90;;;;;;5048299;28;20390;-64
2022/05/28 10:33:01;;;;;;;13.03;2.50;;;14.60;99.90;;;;;;5046623;28;20067;-65
2022/05/28 10:35:29;;;;;;;11.07;2.33;;;14.60;99.90;;;;;;5046340;28;20294;-64
2022/05/28 10:38:26;;;;;;;11.43;2.08;;;14.60;99.90;;;;;;5047884;28;20073;-65
2022/05/28 10:40:57;;;;;;;6.18;1.75;;;14.40;99.90;;;;;;5048042;28;20455;-65
2022/05/28 10:43:33;;;;;;;13.82;3.50;;;14.50;99.90;;;;;;5046513;28;20091;-65
2022/05/28 10:45:59;;;;;;;16.55;2.38;;;;;;;;;;5047253;28;20083;-65
2022/05/28 10:48:31;;;;;;;14.55;2.72;;;14.80;99.90;;;;;;5046673;28;20037;-64
2022/05/28 10:51:19;;;;;;;8.35;2.20;;;14.80;99.90;;;;;;5047812;28;20052;-64
2022/05/28 10:54:22;;;;;;;9.75;1.70;;;14.80;99.90;;;;;;5046886;28;20056;-63
2022/05/28 10:57:08;;;;;;;10.88;3.28;;;14.80;99.90;;;;;;5046300;28;20139;-63
2022/05/28 10:59:36;;;;;;;;;;;14.80;99.90;;;;;;5050891;28;20033;-65
2022/05/28 11:02:11;;;;;;;13.07;2.33;;;14.70;99.90;;;;;;5049825;28;20367;-64
2022/05/28 11:04:52;;;;;;;11.85;2.20;;;14.60;99.90;;;;;;5048690;28;20128;-64
2022/05/28 11:07:32;;;;;;;14.07;3.10;;;14.50;99.90;;;;;;5049173;28;20483;-63
2022/05/28 11:10:06;;;;;;;12.50;3.47;;;14.40;99.90;;;;;;5050773;28;20039;-64
2022/05/28 11:12:56;;;;;;;29.70;5.32;;;14.30;99.90;;;;;;5049733;28;20127;-64
2022/05/28 11:15:31;;;;;;;15.65;2.90;;;14.10;99.90;;;;;;5048925;28;20048;-63
2022/05/28 11:18:17;;;;;;;13.88;2.47;;;14.00;99.90;;;;;;5047594;28;20037;-66
2022/05/28 11:20:58;;;;;;;9.98;2.30;;;14.00;99.90;;;;;;5047630;28;20119;-63
2022/05/28 11:23:55;;;;;;;14.23;2.72;;;13.80;99.90;;;;;;5052492;28;20041;-66
2022/05/28 11:30:23;;;;;;;13.45;2.92;;;14.00;99.90;;;;;;5051398;28;20490;-63
2022/05/28 11:33:25;;;;;;;10.18;2.05;;;13.90;99.90;;;;;;5039772;28;20052;-63
2022/05/28 11:36:10;;;;;;;11.65;2.08;;;14.00;99.90;;;;;;5043966;28;20056;-64
2022/05/28 11:38:42;;;;;;;;;;;14.00;99.90;;;;;;5052464;28;20132;-63
2022/05/28 11:41:31;;;;;;;10.00;1.83;;;14.20;99.90;;;;;;5051796;28;19917;-64
2022/05/28 11:44:19;;;;;;;6.75;1.75;;;14.30;99.90;;;;;;5052279;28;20045;-64
2022/05/28 11:47:14;;;;;;;6.15;2.05;;;14.40;99.90;;;;;;5052168;28;20813;-63
2022/05/28 11:53:02;;;;;;;11.57;3.00;;;14.10;99.90;;;;;;5039818;28;20056;-64
2022/05/28 11:55:32;;;;;;;15.57;2.75;;;14.10;99.90;;;;;;5050614;28;20065;-64
2022/05/28 11:58:10;;;;;;;12.23;2.05;;;13.90;99.90;;;;;;5049755;28;20045;-63
2022/05/28 12:00:39;;;;;;;14.73;2.42;;;14.00;99.90;;;;;;5051938;28;20048;-64
2022/05/28 12:03:19;;;;;;;13.68;2.60;;;14.00;99.90;;;;;;5051697;28;20080;-63
2022/05/28 12:05:52;;;;;;;9.65;3.50;;;14.10;99.90;;;;;;5051983;28;20045;-64
2022/05/28 12:08:28;;;;;;;13.20;2.10;;;14.10;99.90;;;;;;5053261;28;20049;-64
2022/05/28 12:11:01;;;;;;;14.18;2.40;;;14.20;99.90;;;;;;5053380;28;20041;-64
2022/05/28 12:13:49;;;;;;;9.20;1.98;;;14.40;99.90;;;;;;5051843;28;20036;-64
2022/05/28 12:16:21;;;;;;;11.38;2.28;;;14.60;99.90;;;;;;5052621;28;20490;-64
2022/05/28 12:19:05;;;;;;;9.48;2.20;;;14.60;99.90;;;;;;5051832;28;20063;-64
2022/05/28 12:21:38;;;;;;;9.60;2.70;;;14.70;99.90;;;;;;5053030;28;20037;-63
2022/05/28 12:24:18;;;;;;;11.57;2.72;;;14.70;99.90;;;;;;5049824;28;20434;-64
2022/05/28 12:27:11;;;;;;;7.88;2.42;;;14.80;99.90;;;;;;5050227;28;20051;-64
2022/05/28 12:29:48;;;;;;;7.32;1.90;;;14.70;99.90;;;;;;5052552;28;20487;-64
2022/05/28 12:32:14;;;;;;;6.72;1.60;;;;;;;;;;5049783;28;20103;-67
2022/05/28 12:35:19;;;;;;;7.72;1.80;;;14.50;99.90;;;;;;5053012;28;20479;-64
2022/05/28 12:37:50;;;;;;;11.40;1.83;;;14.70;99.90;;;;;;5015122;28;20119;-64
2022/05/28 12:40:22;;;;;;;7.15;1.85;;;14.60;99.90;;;;;;5051523;28;20045;-63
2022/05/28 12:42:48;;;;;;;13.48;2.45;;;;;;;;;;5051031;28;20045;-64
2022/05/28 12:45:34;;;;;;;8.23;1.90;;;14.70;99.90;;;;;;5051370;28;20041;-63
2022/05/28 12:48:23;;;;;;;10.35;2.00;;;14.80;99.90;;;;;;5052978;28;20461;-65
2022/05/28 12:51:03;;;;;;;10.15;2.22;;;14.90;99.90;;;;;;5049693;28;20120;-64
2022/05/28 12:53:34;;;;;;;10.90;2.22;;;15.00;99.90;;;;;;5045117;28;20053;-64
2022/05/28 12:56:04;;;;;;;11.10;1.90;;;15.00;99.90;;;;;;5041094;28;20055;-64
2022/05/28 12:58:31;;;;;;;7.65;1.90;;;14.80;99.90;;;;;;5050635;28;20128;-65
2022/05/28 13:01:03;;;;;;;7.63;2.97;;;14.50;99.90;;;;;;5049955;28;20071;-65
2022/05/28 13:03:41;;;;;;;10.40;1.77;;;14.70;99.90;;;;;;5043467;28;20051;-65
2022/05/28 13:06:28;;;;;;;11.48;2.65;;;14.70;99.90;;;;;;5042232;28;20041;-64
2022/05/28 13:09:04;;;;;;;10.27;2.17;;;14.80;99.90;;;;;;5031284;28;20073;-64
2022/05/28 13:11:42;;;;;;;13.65;1.98;;;14.90;99.90;;;;;;5034615;28;20041;-65
2022/05/28 13:14:33;;;;;;;8.75;2.03;;;14.70;99.90;;;;;;5030798;28;20446;-64
2022/05/28 13:17:23;;;;;;;7.82;2.00;;;15.00;99.90;;;;;;5033771;28;20470;-64
2022/05/28 13:20:29;;;;;;;11.57;2.30;;;14.60;99.90;;;;;;5032867;28;20052;-64
2022/05/28 13:23:17;;;;;;;10.75;1.88;;;14.60;99.90;;;;;;5033641;28;20053;-64
2022/05/28 13:25:43;;;;;;;7.95;2.00;;;;;;;;;;5042634;28;20056;-65
2022/05/28 13:28:37;;;;;;;9.88;1.70;;;14.50;99.90;;;;;;5031541;28;20110;-64
2022/05/28 13:31:06;;;;;;;13.57;2.03;;;14.50;99.90;;;;;;5046082;28;20048;-65
2022/05/28 13:33:34;;;;;;;7.65;1.50;;;14.60;99.90;;;;;;5047135;28;20043;-64
2022/05/28 13:36:01;;;;;;;6.05;1.38;;;14.70;99.90;;;;;;5049330;28;20045;-65
2022/05/28 13:38:29;;;;;;;12.27;1.85;;;14.90;99.90;;;;;;5048866;28;20041;-65
2022/05/28 13:40:56;;;;;;;11.68;1.55;;;14.90;99.90;;;;;;5046620;28;20537;-64
2022/05/28 13:43:27;;;;;;;11.63;1.98;;;14.70;99.90;;;;;;5048436;28;20119;-65